Time;durP1;ratioP1;P1;durP2;ratioP2;P2;SDS_P1;SDS_P2;PMS_P1;PMS_P2;Temp;Humidity;BMP_temperature;BMP_pressure;BME280_temperature;BME280_humidity;BME280_pressure;Samples;Min_cycle;Max_cycle;Signal;HPM_P1;HPM_P2
2023/01/14 00:02:04;;;;;;;16.50;10.75;;;-2.20;99.90;;;;;;5049937;28;20032;-75
2023/01/14 00:04:30;;;;;;;12.40;8.10;;;-2.20;99.90;;;;;;5054016;28;20834;-75
2023/01/14 00:06:56;;;;;;;16.75;10.25;;;-2.20;99.90;;;;;;5054354;28;20078;-75
2023/01/14 00:09:26;;;;;;;12.02;6.57;;;-2.20;99.90;;;;;;5045135;28;20476;-75
2023/01/14 00:11:52;;;;;;;12.00;6.63;;;-2.20;99.90;;;;;;5044563;28;20036;-75
2023/01/14 00:14:22;;;;;;;21.67;10.90;;;-2.20;99.90;;;;;;5053850;28;20033;-74
2023/01/14 00:16:52;;;;;;;22.77;10.68;;;-2.20;99.90;;;;;;5053773;28;20048;-74
2023/01/14 00:19:19;;;;;;;19.70;9.48;;;-2.20;99.90;;;;;;5053671;28;20082;-75
2023/01/14 00:21:45;;;;;;;24.55;10.75;;;-2.10;99.90;;;;;;5053719;28;20047;-73
2023/01/14 00:24:12;;;;;;;15.48;8.73;;;-2.10;99.90;;;;;;5053490;28;20037;-76
2023/01/14 00:26:39;;;;;;;17.88;11.65;;;-2.10;99.90;;;;;;5053575;28;20053;-77
2023/01/14 00:29:05;;;;;;;29.23;11.38;;;-2.20;99.90;;;;;;5053537;28;20421;-75
2023/01/14 00:31:30;;;;;;;23.50;9.43;;;-2.10;99.90;;;;;;5035647;28;20108;-74
2023/01/14 00:33:59;;;;;;;21.83;10.40;;;-2.10;99.90;;;;;;5053137;28;20112;-74
2023/01/14 00:36:26;;;;;;;16.23;5.93;;;-2.10;99.90;;;;;;5039651;28;20107;-75
2023/01/14 00:38:53;;;;;;;20.05;9.27;;;-2.10;99.90;;;;;;5053198;28;20033;-75
2023/01/14 00:41:22;;;;;;;22.45;11.32;;;-2.10;99.90;;;;;;5053118;28;20103;-74
2023/01/14 00:43:54;;;;;;;17.73;10.25;;;-2.10;99.90;;;;;;5035778;28;20025;-75
2023/01/14 00:46:22;;;;;;;27.90;12.30;;;-2.10;99.90;;;;;;5035229;28;20391;-75
2023/01/14 00:48:48;;;;;;;25.02;9.70;;;-2.10;99.90;;;;;;5053212;28;20029;-75
2023/01/14 00:51:15;;;;;;;28.73;10.50;;;-2.10;99.90;;;;;;5052942;28;20033;-74
2023/01/14 00:53:41;;;;;;;21.23;9.40;;;-2.10;99.90;;;;;;5053295;28;20028;-75
2023/01/14 00:56:08;;;;;;;16.40;10.10;;;-2.10;99.90;;;;;;5053139;28;20075;-76
2023/01/14 00:58:34;;;;;;;20.15;9.02;;;-2.10;99.90;;;;;;5033494;28;20377;-74
2023/01/14 01:01:00;;;;;;;29.10;11.30;;;-2.10;99.90;;;;;;5002807;28;20025;-76
2023/01/14 01:03:27;;;;;;;18.70;8.70;;;-2.10;99.90;;;;;;5032032;28;20093;-75
2023/01/14 01:05:53;;;;;;;26.67;10.68;;;-2.00;99.90;;;;;;5015378;28;20025;-74
2023/01/14 01:08:21;;;;;;;26.42;11.10;;;-2.00;99.90;;;;;;5030163;28;20040;-73
2023/01/14 01:10:50;;;;;;;25.75;10.85;;;-2.00;99.90;;;;;;5021572;28;20163;-74
2023/01/14 01:13:16;;;;;;;26.02;11.40;;;-2.00;99.90;;;;;;5014856;28;20025;-72
2023/01/14 01:15:42;;;;;;;15.63;8.83;;;-2.00;99.90;;;;;;5032760;28;20104;-74
2023/01/14 01:18:11;;;;;;;26.17;10.20;;;-2.00;99.90;;;;;;5032751;28;20029;-74
2023/01/14 01:20:37;;;;;;;25.88;12.02;;;-2.00;99.90;;;;;;5032669;28;20025;-75
2023/01/14 01:23:04;;;;;;;24.90;12.68;;;-2.00;99.90;;;;;;5032779;28;20380;-74
2023/01/14 01:25:30;;;;;;;19.80;10.27;;;-2.00;99.90;;;;;;5032515;28;20029;-74
2023/01/14 01:27:57;;;;;;;34.95;12.63;;;-1.90;99.90;;;;;;5024473;28;20087;-75
2023/01/14 01:30:24;;;;;;;9.13;6.07;;;-1.90;99.90;;;;;;5032262;28;20075;-74
2023/01/14 01:32:51;;;;;;;25.65;8.98;;;-1.90;99.90;;;;;;5032826;28;20033;-75
2023/01/14 01:35:17;;;;;;;22.60;11.13;;;-1.90;99.90;;;;;;5032367;28;20025;-74
2023/01/14 01:37:43;;;;;;;16.50;8.98;;;-2.00;99.90;;;;;;5032559;28;20484;-73
2023/01/14 01:40:11;;;;;;;22.75;11.57;;;-2.00;99.90;;;;;;5032250;28;20068;-73
2023/01/14 01:42:54;;;;;;;23.27;9.35;;;-2.00;99.90;;;;;;5032177;28;20017;-75
2023/01/14 01:45:46;;;;;;;19.20;11.73;;;-2.00;99.90;;;;;;5032634;28;20356;-74
2023/01/14 01:48:28;;;;;;;23.98;11.50;;;-2.00;99.90;;;;;;5020521;28;20022;-74
2023/01/14 01:51:04;;;;;;;29.08;11.68;;;-2.00;99.90;;;;;;5031989;28;20031;-74
2023/01/14 01:53:32;;;;;;;20.25;11.38;;;-2.00;99.90;;;;;;5032306;28;20037;-75
2023/01/14 01:56:00;;;;;;;23.52;12.88;;;-2.00;99.90;;;;;;5031928;28;20031;-75
2023/01/14 01:58:27;;;;;;;21.77;9.27;;;-2.00;99.90;;;;;;5050847;28;20045;-74
2023/01/14 02:00:53;;;;;;;18.92;8.90;;;-2.00;99.90;;;;;;5051467;28;20021;-75
2023/01/14 02:03:25;;;;;;;28.30;11.43;;;-2.00;99.90;;;;;;5051958;28;20088;-75
2023/01/14 02:05:52;;;;;;;23.60;12.45;;;-2.00;99.90;;;;;;5051943;28;20503;-74
2023/01/14 02:08:18;;;;;;;23.00;7.82;;;-2.00;99.90;;;;;;5035802;28;20048;-75
2023/01/14 02:11:19;;;;;;;19.42;10.85;;;-2.00;99.90;;;;;;5040034;28;20037;-75
2023/01/14 02:14:24;;;;;;;16.52;10.15;;;-2.10;99.90;;;;;;5051757;28;20031;-73
2023/01/14 02:17:04;;;;;;;17.92;9.63;;;-2.10;99.90;;;;;;5003751;28;20030;-74
2023/01/14 02:19:57;;;;;;;25.70;10.00;;;-2.10;99.90;;;;;;5051801;28;20033;-74
2023/01/14 02:23:00;;;;;;;24.88;13.38;;;-2.20;99.90;;;;;;5037747;28;20021;-75
2023/01/14 02:25:49;;;;;;;21.23;9.60;;;-2.10;99.90;;;;;;5051587;28;20428;-74
2023/01/14 02:28:30;;;;;;;18.92;11.73;;;-2.10;99.90;;;;;;5051582;28;20431;-72
2023/01/14 02:31:14;;;;;;;20.85;12.35;;;-2.10;99.90;;;;;;5038131;28;20048;-74
2023/01/14 02:33:41;;;;;;;21.92;11.88;;;-2.10;99.90;;;;;;5051807;28;20032;-74
2023/01/14 02:36:42;;;;;;;19.58;11.20;;;-2.10;99.90;;;;;;5051605;28;20028;-73
2023/01/14 02:39:14;;;;;;;21.55;10.45;;;-2.20;99.90;;;;;;5010257;28;20073;-73
2023/01/14 02:44:56;;;;;;;16.85;8.85;;;-2.30;99.90;;;;;;5051791;28;20061;-74
2023/01/14 02:47:25;;;;;;;25.17;11.65;;;-2.30;99.90;;;;;;5051352;28;20096;-74
2023/01/14 02:49:54;;;;;;;15.48;8.63;;;-2.30;99.90;;;;;;5051464;28;20487;-75
2023/01/14 02:52:20;;;;;;;19.17;8.00;;;-2.30;99.90;;;;;;5051518;28;20525;-74
2023/01/14 02:54:53;;;;;;;14.55;9.73;;;-2.40;99.90;;;;;;5051530;28;20104;-74
2023/01/14 02:57:35;;;;;;;22.92;10.05;;;-2.40;99.90;;;;;;5051244;28;20055;-74
2023/01/14 03:00:27;;;;;;;15.85;8.18;;;-2.40;99.90;;;;;;5054971;28;20048;-74
2023/01/14 03:03:11;;;;;;;13.80;8.18;;;-2.40;99.90;;;;;;5055046;28;20020;-75
2023/01/14 03:05:48;;;;;;;18.63;9.13;;;-2.50;99.90;;;;;;5054928;28;20063;-75
2023/01/14 03:08:54;;;;;;;20.73;11.00;;;-2.50;99.90;;;;;;5053221;28;20091;-73
2023/01/14 03:11:20;;;;;;;18.05;11.27;;;-2.50;99.90;;;;;;5030230;28;20087;-73
2023/01/14 03:13:57;;;;;;;18.17;9.02;;;-2.50;99.90;;;;;;5054898;28;20025;-75
2023/01/14 03:16:44;;;;;;;27.15;13.57;;;-2.50;99.90;;;;;;5054912;28;20032;-75
2023/01/14 03:19:25;;;;;;;18.73;9.32;;;-2.60;99.90;;;;;;5042494;28;20033;-73
2023/01/14 03:21:54;;;;;;;20.02;8.05;;;-2.60;99.90;;;;;;5054801;28;20036;-74
2023/01/14 03:24:23;;;;;;;22.05;11.35;;;-2.60;99.90;;;;;;5054917;28;20029;-73
2023/01/14 03:26:51;;;;;;;17.73;10.43;;;-2.60;99.90;;;;;;5054537;28;20132;-74
2023/01/14 03:29:28;;;;;;;26.30;12.82;;;-2.60;99.90;;;;;;5054572;28;20495;-73
2023/01/14 03:32:10;;;;;;;22.25;12.07;;;-2.50;99.90;;;;;;5054562;28;20145;-75
2023/01/14 03:34:42;;;;;;;14.45;7.43;;;-2.50;99.90;;;;;;5054659;28;20017;-74
2023/01/14 03:37:11;;;;;;;22.05;9.50;;;-2.50;99.90;;;;;;5036301;28;20360;-75
2023/01/14 03:39:42;;;;;;;20.45;11.57;;;-2.60;99.90;;;;;;5054326;28;20119;-74
2023/01/14 03:42:19;;;;;;;19.92;11.05;;;-2.50;99.90;;;;;;5054452;28;20025;-74
2023/01/14 03:45:03;;;;;;;20.00;11.90;;;-2.50;99.90;;;;;;5054379;28;20024;-74
2023/01/14 03:47:34;;;;;;;12.75;7.63;;;-2.50;99.90;;;;;;5054176;28;20024;-74
2023/01/14 03:50:03;;;;;;;20.85;11.65;;;-2.50;99.90;;;;;;5054424;28;20028;-73
2023/01/14 03:52:45;;;;;;;19.85;10.43;;;-2.50;99.90;;;;;;5054252;28;20033;-74
2023/01/14 03:55:43;;;;;;;24.50;13.10;;;-2.50;99.90;;;;;;5048620;28;20108;-74
2023/01/14 03:58:12;;;;;;;26.45;12.18;;;-2.50;99.90;;;;;;5040454;28;20048;-74
2023/01/14 04:00:48;;;;;;;19.92;10.73;;;-2.40;99.90;;;;;;5054195;28;20055;-74
2023/01/14 04:03:15;;;;;;;22.23;13.77;;;-2.50;99.90;;;;;;5054017;28;20025;-75
2023/01/14 04:05:41;;;;;;;25.48;12.80;;;-2.50;99.90;;;;;;5054068;28;20082;-73
2023/01/14 04:08:08;;;;;;;20.43;11.27;;;-2.50;99.90;;;;;;5035528;28;20103;-74
2023/01/14 04:10:34;;;;;;;21.70;11.63;;;-2.50;99.90;;;;;;5047732;28;20151;-74
2023/01/14 04:15:44;;;;;;;23.02;12.90;;;-2.50;99.90;;;;;;5041335;28;20051;-74
2023/01/14 04:18:10;;;;;;;13.27;8.10;;;-2.50;99.90;;;;;;5053705;28;20025;-73
2023/01/14 04:20:36;;;;;;;23.00;11.38;;;-2.50;99.90;;;;;;5053620;28;20025;-74
2023/01/14 04:23:02;;;;;;;26.20;11.63;;;-2.50;99.90;;;;;;5053390;28;20029;-75
2023/01/14 04:25:28;;;;;;;22.73;11.25;;;-2.50;99.90;;;;;;5053452;28;20017;-73
2023/01/14 04:27:53;;;;;;;19.52;11.32;;;-2.50;99.90;;;;;;5052696;28;20156;-74
2023/01/14 04:30:19;;;;;;;18.33;10.02;;;-2.50;99.90;;;;;;5053366;28;20490;-74
2023/01/14 04:32:46;;;;;;;18.67;8.52;;;-2.50;99.90;;;;;;5035784;28;20033;-74
2023/01/14 04:35:12;;;;;;;24.30;14.18;;;-2.50;99.90;;;;;;5053674;28;20502;-75
2023/01/14 04:37:37;;;;;;;19.70;10.85;;;-2.50;99.90;;;;;;5035579;28;20021;-74
2023/01/14 04:40:04;;;;;;;32.53;14.15;;;-2.50;99.90;;;;;;5053699;28;20041;-74
2023/01/14 04:42:31;;;;;;;21.37;11.03;;;-2.50;99.90;;;;;;5053212;28;20382;-73
2023/01/14 04:44:59;;;;;;;17.83;10.23;;;-2.40;99.90;;;;;;5034814;28;20355;-73
2023/01/14 04:47:25;;;;;;;26.45;14.73;;;-2.40;99.90;;;;;;5035368;28;20024;-73
2023/01/14 04:49:51;;;;;;;20.50;11.40;;;-2.50;99.90;;;;;;5053189;28;20104;-72
2023/01/14 04:52:18;;;;;;;16.65;8.63;;;-2.50;99.90;;;;;;5053052;28;20107;-73
2023/01/14 04:54:44;;;;;;;23.15;12.38;;;-2.40;99.90;;;;;;5053092;28;20043;-73
2023/01/14 04:57:10;;;;;;;15.73;8.75;;;-2.40;99.90;;;;;;5053038;28;20520;-73
2023/01/14 04:59:36;;;;;;;28.27;13.52;;;-2.40;99.90;;;;;;5052971;28;20024;-74
2023/01/14 05:02:02;;;;;;;21.27;10.00;;;-2.40;99.90;;;;;;5051937;28;20087;-74
2023/01/14 05:04:27;;;;;;;13.65;9.43;;;-2.40;99.90;;;;;;5052850;28;20464;-74
2023/01/14 05:06:54;;;;;;;18.65;9.45;;;-2.40;99.90;;;;;;5052833;28;20025;-74
2023/01/14 05:09:20;;;;;;;13.77;8.30;;;-2.40;99.90;;;;;;5046177;28;20028;-73
2023/01/14 05:11:46;;;;;;;22.17;11.43;;;-2.40;99.90;;;;;;5052865;28;20036;-74
2023/01/14 05:14:12;;;;;;;15.82;8.25;;;-2.50;99.90;;;;;;5034926;28;20108;-74
2023/01/14 05:16:37;;;;;;;12.65;8.85;;;-2.40;99.90;;;;;;5052908;28;20476;-74
2023/01/14 05:19:03;;;;;;;23.98;11.13;;;-2.50;99.90;;;;;;5051732;28;20033;-73
2023/01/14 05:21:29;;;;;;;14.85;8.70;;;-2.50;99.90;;;;;;5052624;28;20033;-74
2023/01/14 05:23:55;;;;;;;16.67;9.98;;;-2.40;99.90;;;;;;5052448;28;20490;-73
2023/01/14 05:26:21;;;;;;;19.55;10.70;;;-2.50;99.90;;;;;;5052449;28;20035;-73
2023/01/14 05:28:47;;;;;;;18.60;8.85;;;-2.40;99.90;;;;;;5051398;28;20104;-74
2023/01/14 05:31:12;;;;;;;20.83;9.52;;;-2.40;99.90;;;;;;5053289;28;20017;-75
2023/01/14 05:33:38;;;;;;;25.92;12.77;;;-2.40;99.90;;;;;;5053082;28;20025;-74
2023/01/14 05:36:05;;;;;;;19.48;8.18;;;-2.40;99.90;;;;;;5052712;28;20040;-73
2023/01/14 05:38:31;;;;;;;20.00;8.38;;;-2.40;99.90;;;;;;5052699;28;20025;-73
2023/01/14 05:40:57;;;;;;;19.17;10.75;;;-2.40;99.90;;;;;;5052221;28;20461;-75
2023/01/14 05:46:12;;;;;;;17.15;9.52;;;-2.40;99.90;;;;;;5051430;28;20049;-75
2023/01/14 05:48:38;;;;;;;12.05;6.90;;;-2.40;99.90;;;;;;5052332;28;20055;-75
2023/01/14 05:51:06;;;;;;;16.75;8.18;;;-2.40;99.90;;;;;;5052471;28;20040;-74
2023/01/14 05:53:33;;;;;;;16.60;10.57;;;-2.40;99.90;;;;;;5052177;28;20025;-74
2023/01/14 05:56:00;;;;;;;20.73;7.80;;;-2.50;99.90;;;;;;5051755;28;20056;-74
2023/01/14 05:58:26;;;;;;;9.85;6.32;;;-2.40;99.90;;;;;;5051847;28;20052;-74
2023/01/14 06:06:27;;;;;;;11.98;6.53;;;-2.40;99.90;;;;;;5050264;28;20031;-74
2023/01/14 06:08:56;;;;;;;14.65;8.77;;;-2.40;99.90;;;;;;5045039;28;20022;-74
2023/01/14 06:11:26;;;;;;;13.52;9.40;;;-2.40;99.90;;;;;;5045290;28;20514;-74
2023/01/14 06:13:56;;;;;;;13.60;7.38;;;-2.40;99.90;;;;;;5051617;28;20032;-74
2023/01/14 06:16:23;;;;;;;18.77;6.70;;;-2.40;99.90;;;;;;5051714;28;20021;-74
2023/01/14 06:18:49;;;;;;;16.17;7.82;;;-2.40;99.90;;;;;;5051721;28;20029;-74
2023/01/14 06:21:21;;;;;;;18.13;11.48;;;-2.40;99.90;;;;;;5050194;28;20510;-75
2023/01/14 06:23:47;;;;;;;11.52;7.43;;;-2.40;99.90;;;;;;5050991;28;20068;-74
2023/01/14 06:26:17;;;;;;;14.25;9.40;;;-2.30;99.90;;;;;;5031686;28;20029;-75
2023/01/14 06:28:43;;;;;;;15.13;8.73;;;-2.40;99.90;;;;;;5045816;28;20539;-75
2023/01/14 06:31:14;;;;;;;23.77;8.80;;;-2.40;99.90;;;;;;5051631;28;20112;-74
2023/01/14 06:33:41;;;;;;;17.73;8.48;;;-2.30;99.90;;;;;;5052949;28;20032;-76
2023/01/14 06:36:08;;;;;;;18.77;8.20;;;-2.30;99.90;;;;;;5055856;28;20077;-75
2023/01/14 06:38:34;;;;;;;12.00;6.88;;;-2.40;99.90;;;;;;5048826;28;20471;-76
2023/01/14 06:41:01;;;;;;;21.23;10.27;;;-2.30;99.90;;;;;;5055341;28;20391;-75
2023/01/14 06:43:28;;;;;;;15.65;9.50;;;-2.30;99.90;;;;;;5055499;28;20437;-76
2023/01/14 06:45:55;;;;;;;13.15;6.95;;;-2.30;99.90;;;;;;5054160;28;20056;-76
2023/01/14 06:48:21;;;;;;;11.07;7.67;;;-2.30;99.90;;;;;;5055471;28;20049;-76
2023/01/14 06:50:47;;;;;;;13.30;8.23;;;-2.30;99.90;;;;;;5037341;28;20025;-76
2023/01/14 06:53:13;;;;;;;10.43;7.10;;;-2.30;99.90;;;;;;5055300;28;20025;-76
2023/01/14 06:55:39;;;;;;;16.58;9.90;;;-2.30;99.90;;;;;;5055315;28;20029;-74
2023/01/14 06:58:05;;;;;;;15.32;9.80;;;-2.20;99.90;;;;;;5055035;28;20125;-75
2023/01/14 07:00:31;;;;;;;23.30;9.88;;;-2.20;99.90;;;;;;5051615;28;20115;-76
2023/01/14 07:02:56;;;;;;;15.45;8.80;;;-2.20;99.90;;;;;;5055237;28;20040;-76
2023/01/14 07:05:22;;;;;;;15.63;8.93;;;-2.20;99.90;;;;;;5055044;28;20530;-74
2023/01/14 07:07:49;;;;;;;18.00;10.13;;;-2.20;99.90;;;;;;5054976;28;20025;-75
2023/01/14 07:10:16;;;;;;;17.27;8.35;;;-2.20;99.90;;;;;;5054817;28;20028;-74
2023/01/14 07:12:46;;;;;;;16.15;7.25;;;-2.20;99.90;;;;;;5054895;28;20514;-74
2023/01/14 07:15:13;;;;;;;17.85;9.65;;;-2.20;99.90;;;;;;5054634;28;20509;-74
2023/01/14 07:17:39;;;;;;;24.38;12.82;;;-2.20;99.90;;;;;;5054652;28;20012;-75
2023/01/14 07:20:07;;;;;;;18.60;8.43;;;-2.20;99.90;;;;;;5054462;28;20572;-75
2023/01/14 07:22:33;;;;;;;25.88;11.15;;;-2.10;99.90;;;;;;5054766;28;20036;-76
2023/01/14 07:25:01;;;;;;;21.70;10.52;;;-2.10;99.90;;;;;;5054506;28;20025;-74
2023/01/14 07:27:27;;;;;;;13.85;8.80;;;-2.10;99.90;;;;;;5053350;28;20014;-76
2023/01/14 07:29:53;;;;;;;17.73;8.97;;;-2.10;99.90;;;;;;5054320;28;20027;-75
2023/01/14 07:32:19;;;;;;;19.58;9.27;;;-2.10;99.90;;;;;;5054469;28;20254;-76
2023/01/14 07:34:45;;;;;;;18.85;8.98;;;-2.10;99.90;;;;;;5054024;28;20025;-74
2023/01/14 07:37:11;;;;;;;16.38;9.27;;;-2.10;99.90;;;;;;5051791;28;20017;-75
2023/01/14 07:39:37;;;;;;;21.35;11.52;;;-2.10;99.90;;;;;;5053968;28;20036;-75
2023/01/14 07:42:03;;;;;;;11.73;7.72;;;-2.10;99.90;;;;;;5054269;28;20075;-75
2023/01/14 07:44:32;;;;;;;16.80;8.32;;;-2.00;99.90;;;;;;5051822;28;20086;-76
2023/01/14 07:46:58;;;;;;;17.00;8.25;;;-2.00;99.90;;;;;;5054060;28;20041;-74
2023/01/14 07:49:24;;;;;;;22.30;10.40;;;-2.00;99.90;;;;;;5054147;28;20033;-75
2023/01/14 07:51:51;;;;;;;21.63;10.52;;;-2.00;99.90;;;;;;5053849;28;20108;-76
2023/01/14 07:54:18;;;;;;;11.60;7.20;;;-2.00;99.90;;;;;;5053599;28;20028;-76
2023/01/14 07:56:44;;;;;;;15.15;7.53;;;-2.00;99.90;;;;;;5053469;28;20080;-76
2023/01/14 07:59:10;;;;;;;13.10;9.32;;;-2.00;99.90;;;;;;5052626;28;20450;-75
2023/01/14 08:01:36;;;;;;;20.83;11.25;;;-2.00;99.90;;;;;;5052895;28;20025;-73
2023/01/14 08:04:05;;;;;;;16.60;8.95;;;-1.90;99.90;;;;;;5053480;28;20392;-74
2023/01/14 08:06:32;;;;;;;15.73;10.02;;;-1.90;99.90;;;;;;5053840;28;20021;-74
2023/01/14 08:09:03;;;;;;;10.93;7.95;;;-1.90;99.90;;;;;;5053540;28;20377;-76
2023/01/14 08:11:29;;;;;;;22.42;9.93;;;-1.90;99.90;;;;;;5018530;28;20415;-76
2023/01/14 08:13:56;;;;;;;18.55;9.27;;;-1.90;99.90;;;;;;5050987;28;20033;-75
2023/01/14 08:16:21;;;;;;;21.90;10.77;;;-1.80;99.90;;;;;;5043695;28;20566;-75
2023/01/14 08:18:48;;;;;;;16.60;8.80;;;-1.90;99.90;;;;;;5053368;28;20043;-74
2023/01/14 08:21:14;;;;;;;25.15;9.70;;;-1.80;99.90;;;;;;5052321;28;20087;-75
2023/01/14 08:23:40;;;;;;;23.95;11.43;;;-1.80;99.90;;;;;;5052731;28;20029;-76
2023/01/14 08:26:11;;;;;;;21.38;10.15;;;-1.80;99.90;;;;;;5053333;28;20051;-75
2023/01/14 08:28:38;;;;;;;13.48;6.65;;;-1.80;99.90;;;;;;5052621;28;20463;-75
2023/01/14 08:31:06;;;;;;;24.63;9.27;;;-1.70;99.90;;;;;;5053337;28;20029;-76
2023/01/14 08:33:33;;;;;;;16.80;8.15;;;-1.70;99.90;;;;;;5034758;28;20285;-75
2023/01/14 08:36:09;;;;;;;19.07;6.53;;;-1.80;99.90;;;;;;5034659;28;20031;-74
2023/01/14 08:38:37;;;;;;;13.90;7.63;;;-1.80;99.90;;;;;;5052797;28;20273;-75
2023/01/14 08:41:07;;;;;;;17.50;8.20;;;-1.80;99.90;;;;;;5052895;28;20422;-73
2023/01/14 08:43:33;;;;;;;12.75;5.97;;;-1.80;99.90;;;;;;5053035;28;20020;-75
2023/01/14 08:46:00;;;;;;;28.73;10.32;;;-1.80;99.90;;;;;;5052898;28;20075;-75
2023/01/14 08:48:27;;;;;;;19.05;8.73;;;-1.80;99.90;;;;;;5034491;28;20025;-76
2023/01/14 08:50:53;;;;;;;19.80;9.35;;;-1.80;99.90;;;;;;5052512;28;20029;-76
2023/01/14 08:53:36;;;;;;;23.13;10.07;;;-1.70;99.90;;;;;;5052868;28;20021;-75
2023/01/14 08:56:11;;;;;;;20.13;10.73;;;-1.70;99.90;;;;;;5028879;28;20571;-76
2023/01/14 08:58:37;;;;;;;23.10;10.27;;;-1.70;99.90;;;;;;5034550;28;20041;-76
2023/01/14 09:01:06;;;;;;;24.23;10.55;;;-1.60;99.90;;;;;;5051945;28;20111;-75
2023/01/14 09:03:33;;;;;;;21.23;8.57;;;-1.50;99.90;;;;;;5034323;28;20021;-75
2023/01/14 09:06:10;;;;;;;22.50;8.13;;;-1.50;99.90;;;;;;5052449;28;20116;-75
2023/01/14 09:17:13;;;;;;;26.27;10.18;;;-1.60;99.90;;;;;;5051249;28;20039;-76
2023/01/14 09:19:56;;;;;;;16.30;8.45;;;-1.60;99.90;;;;;;5034065;28;20102;-76
2023/01/14 09:22:28;;;;;;;20.83;9.27;;;-1.70;99.90;;;;;;5051979;28;20096;-77
2023/01/14 09:24:54;;;;;;;18.30;10.38;;;-1.70;99.90;;;;;;5034096;28;20173;-77
2023/01/14 09:27:21;;;;;;;22.67;10.27;;;-1.80;99.90;;;;;;5034534;28;20306;-76
2023/01/14 09:29:47;;;;;;;24.20;10.45;;;-1.70;99.90;;;;;;5024481;28;20026;-77
2023/01/14 09:32:15;;;;;;;22.92;9.73;;;-1.70;99.90;;;;;;5051093;28;20056;-77
2023/01/14 09:34:47;;;;;;;20.73;10.00;;;-1.70;99.90;;;;;;5034125;28;20025;-78
2023/01/14 09:37:24;;;;;;;21.90;11.68;;;-1.70;99.90;;;;;;5052067;28;20361;-76
2023/01/14 09:39:51;;;;;;;22.05;10.45;;;-1.60;99.90;;;;;;5034053;28;20029;-76
2023/01/14 09:42:34;;;;;;;28.17;10.95;;;-1.60;99.90;;;;;;5050341;28;20021;-75
2023/01/14 09:45:17;;;;;;;17.95;10.63;;;-1.60;99.90;;;;;;5034173;28;20025;-76
2023/01/14 09:47:57;;;;;;;25.60;11.45;;;-1.50;99.90;;;;;;5050501;28;20044;-79
2023/01/14 09:50:42;;;;;;;24.33;8.48;;;-1.50;99.90;;;;;;5051804;28;20540;-76
2023/01/14 09:53:36;;;;;;;22.55;10.68;;;-1.40;99.90;;;;;;5040841;28;20360;-77
2023/01/14 09:56:19;;;;;;;26.35;12.55;;;-1.50;99.90;;;;;;5043227;28;20017;-76
2023/01/14 09:59:22;;;;;;;25.15;10.20;;;-1.60;99.90;;;;;;5033881;28;20045;-76
2023/01/14 10:02:12;;;;;;;24.30;9.98;;;-1.60;99.90;;;;;;5006562;28;20040;-76
2023/01/14 10:04:56;;;;;;;24.83;10.80;;;-1.60;99.90;;;;;;5030479;28;20036;-75
2023/01/14 10:07:23;;;;;;;15.65;7.35;;;-1.70;99.90;;;;;;5051032;28;20013;-77
2023/01/14 10:09:57;;;;;;;16.20;7.43;;;-1.70;99.90;;;;;;5027662;28;20036;-77
2023/01/14 10:12:28;;;;;;;24.55;10.27;;;-1.80;99.90;;;;;;5052127;28;20084;-77
2023/01/14 10:15:14;;;;;;;25.35;11.40;;;-1.80;99.90;;;;;;5051776;28;20050;-78
2023/01/14 10:17:43;;;;;;;21.15;11.40;;;-1.80;99.90;;;;;;5036020;28;20025;-78
2023/01/14 10:20:38;;;;;;;22.35;10.80;;;-1.70;99.90;;;;;;5051520;28;20402;-77
2023/01/14 10:23:16;;;;;;;19.40;8.02;;;-1.60;99.90;;;;;;5051529;28;20088;-77
2023/01/14 10:25:49;;;;;;;20.27;10.50;;;-1.60;99.90;;;;;;5033559;28;20395;-77
2023/01/14 10:28:20;;;;;;;19.65;10.13;;;-1.70;99.90;;;;;;5051702;28;20025;-77
2023/01/14 10:30:48;;;;;;;25.65;10.30;;;-1.70;99.90;;;;;;5051264;28;20025;-77
2023/01/14 10:33:16;;;;;;;14.10;8.95;;;-1.70;99.90;;;;;;5033576;28;20450;-78
2023/01/14 10:35:45;;;;;;;26.83;12.55;;;-1.70;99.90;;;;;;5051409;28;20021;-78
2023/01/14 10:38:21;;;;;;;21.70;10.88;;;-1.70;99.90;;;;;;5033548;28;20029;-77
2023/01/14 10:40:50;;;;;;;20.95;8.38;;;-1.70;99.90;;;;;;5042259;28;20037;-78
2023/01/14 10:43:33;;;;;;;30.35;11.30;;;-1.80;99.90;;;;;;5027122;28;20055;-77
2023/01/14 10:46:00;;;;;;;16.50;9.70;;;-1.80;99.90;;;;;;5047376;28;20076;-78
2023/01/14 10:48:28;;;;;;;15.80;9.10;;;-1.80;99.90;;;;;;5051417;28;20529;-77
2023/01/14 10:51:14;;;;;;;25.55;9.65;;;-1.90;99.90;;;;;;5033036;28;20064;-75
2023/01/14 10:53:42;;;;;;;32.83;12.80;;;-1.90;99.90;;;;;;5045885;28;20030;-75
2023/01/14 10:56:09;;;;;;;14.27;7.15;;;-1.90;99.90;;;;;;5049919;28;20041;-74
2023/01/14 10:58:41;;;;;;;24.60;11.13;;;-1.90;99.90;;;;;;5050860;28;20108;-75
2023/01/14 11:01:09;;;;;;;23.48;11.55;;;-1.90;99.90;;;;;;5050730;28;20037;-75
2023/01/14 11:03:41;;;;;;;18.00;8.13;;;-1.90;99.90;;;;;;5051169;28;20009;-75
2023/01/14 11:06:11;;;;;;;18.58;10.68;;;-1.80;99.90;;;;;;5050701;28;20077;-77
2023/01/14 11:08:39;;;;;;;18.80;11.02;;;-1.80;99.90;;;;;;5033053;28;20021;-76
2023/01/14 11:11:15;;;;;;;29.98;10.93;;;-1.80;99.90;;;;;;5050952;28;20024;-76
2023/01/14 11:13:50;;;;;;;21.73;9.80;;;-1.80;99.90;;;;;;5049492;28;20041;-76
2023/01/14 11:16:25;;;;;;;18.80;10.60;;;-1.80;99.90;;;;;;5040212;28;20017;-80
2023/01/14 11:19:19;;;;;;;24.40;11.25;;;-1.90;99.90;;;;;;5032779;28;20071;-78
2023/01/14 11:21:48;;;;;;;15.82;8.52;;;-1.90;99.90;;;;;;5026987;28;20407;-74
2023/01/14 11:24:37;;;;;;;17.58;7.53;;;-1.80;99.90;;;;;;5054828;28;20021;-75
2023/01/14 11:27:23;;;;;;;15.65;9.15;;;-1.80;99.90;;;;;;5051155;28;20074;-75
2023/01/14 11:30:00;;;;;;;10.38;7.70;;;-1.80;99.90;;;;;;5019838;28;20411;-74
2023/01/14 11:32:35;;;;;;;14.40;8.57;;;-1.90;99.90;;;;;;5054415;28;20112;-75
2023/01/14 11:35:04;;;;;;;19.77;10.88;;;-1.90;99.90;;;;;;5036550;28;20448;-76
2023/01/14 11:37:45;;;;;;;16.40;8.27;;;-2.00;99.90;;;;;;5054482;28;20036;-76
2023/01/14 11:43:25;;;;;;;20.65;9.70;;;-2.00;99.90;;;;;;4993986;28;20080;-77
2023/01/14 11:46:17;;;;;;;13.43;8.18;;;-1.90;99.90;;;;;;5051267;28;20491;-78
2023/01/14 11:48:43;;;;;;;8.57;6.55;;;-1.90;99.90;;;;;;5032631;28;20068;-76
2023/01/14 11:51:20;;;;;;;22.45;9.93;;;-1.90;99.90;;;;;;5036168;28;20586;-76
2023/01/14 11:53:51;;;;;;;12.73;7.55;;;-1.90;99.90;;;;;;5048629;28;20025;-76
2023/01/14 11:56:29;;;;;;;21.20;10.65;;;-1.90;99.90;;;;;;5054078;28;20016;-77
2023/01/14 11:58:55;;;;;;;22.35;10.45;;;-1.90;99.90;;;;;;5046791;28;20116;-76
2023/01/14 12:01:28;;;;;;;13.85;9.57;;;-1.90;99.90;;;;;;5053873;28;20075;-76
2023/01/14 12:04:33;;;;;;;19.50;10.10;;;-1.80;99.90;;;;;;5017809;28;20018;-77
2023/01/14 12:07:07;;;;;;;18.92;9.57;;;-1.80;99.90;;;;;;5002589;28;20037;-78
2023/01/14 12:10:00;;;;;;;22.02;11.30;;;-1.80;99.90;;;;;;5052691;28;20017;-77
2023/01/14 12:19:01;;;;;;;;;;;-1.80;99.90;;;;;;5041581;28;20590;-75
2023/01/14 12:21:38;;;;;;;10.75;6.85;;;-1.90;99.90;;;;;;5027916;28;20040;-75
2023/01/14 12:24:23;;;;;;;15.57;8.90;;;-1.90;99.90;;;;;;5035494;28;20556;-75
2023/01/14 12:26:51;;;;;;;24.05;8.80;;;-1.90;99.90;;;;;;5032659;28;20059;-76
2023/01/14 12:29:23;;;;;;;20.52;13.93;;;-1.90;99.90;;;;;;5053092;28;20032;-76
2023/01/14 12:32:10;;;;;;;25.50;14.40;;;-1.90;99.90;;;;;;5052562;28;20045;-76
2023/01/14 12:34:43;;;;;;;24.70;9.77;;;-1.90;99.90;;;;;;5052873;28;20028;-76
2023/01/14 12:37:22;;;;;;;23.27;13.07;;;-1.80;99.90;;;;;;5050566;28;20028;-76
2023/01/14 12:45:57;;;;;;;35.80;12.68;;;-1.80;99.90;;;;;;5049386;28;20028;-75
2023/01/14 12:48:25;;;;;;;22.10;12.82;;;-1.80;99.90;;;;;;5052792;28;20104;-75
2023/01/14 12:51:18;;;;;;;14.07;8.02;;;-1.80;99.90;;;;;;5049923;28;20579;-76
2023/01/14 12:53:46;;;;;;;23.85;11.32;;;-1.80;99.90;;;;;;5052124;28;20362;-75
2023/01/14 12:56:35;;;;;;;14.15;10.05;;;-1.80;99.90;;;;;;5052756;28;20013;-76
2023/01/14 12:59:20;;;;;;;24.35;11.68;;;-1.80;99.90;;;;;;5052517;28;20112;-78
2023/01/14 13:01:55;;;;;;;23.10;11.05;;;-1.80;99.90;;;;;;5043022;28;20384;-78
2023/01/14 13:04:28;;;;;;;21.92;9.48;;;-1.80;99.90;;;;;;5052717;28;20111;-77
2023/01/14 13:07:28;;;;;;;21.27;10.88;;;-1.80;99.90;;;;;;5036411;28;20032;-75
2023/01/14 13:10:00;;;;;;;27.35;12.93;;;-1.90;99.90;;;;;;5029893;28;20037;-76
2023/01/14 13:12:33;;;;;;;21.33;11.02;;;-1.80;99.90;;;;;;5034827;28;20025;-77
2023/01/14 13:15:03;;;;;;;22.17;12.98;;;-1.80;99.90;;;;;;5052245;28;20098;-77
2023/01/14 13:17:37;;;;;;;22.40;11.88;;;-1.80;99.90;;;;;;5031088;28;20030;-78
2023/01/14 13:20:28;;;;;;;15.02;8.85;;;-1.80;99.90;;;;;;5047259;28;20035;-78
2023/01/14 13:22:59;;;;;;;15.10;8.70;;;-1.80;99.90;;;;;;5051605;28;20557;-80
2023/01/14 13:25:41;;;;;;;25.85;13.07;;;-1.80;99.90;;;;;;5051697;28;20102;-77
2023/01/14 13:28:10;;;;;;;25.00;12.18;;;-1.80;99.90;;;;;;5051789;28;20021;-77
2023/01/14 13:30:53;;;;;;;14.73;9.85;;;-1.80;99.90;;;;;;5049121;28;20029;-77
2023/01/14 13:33:23;;;;;;;22.50;12.07;;;-1.80;99.90;;;;;;5052010;28;20027;-78
2023/01/14 13:36:22;;;;;;;29.42;12.10;;;-1.80;99.90;;;;;;5026265;28;20086;-78